Time,TemperatureF,DewpointF,PressureIn,WindDirection,WindDirectionDegrees,WindSpeedMPH,WindSpeedGustMPH,Humidity,HourlyPrecipIn,Conditions,Clouds,dailyrainin,SoftwareType,DateUTC
2013-05-15 00:00:00,72.1,63.8,30.03,South,178,0.0,0.0,75,0.00,,---,0.00,VWS V14.00,2013-05-15 06:00:00,
2013-05-15 00:01:00,72.1,63.8,30.03,South,186,0.0,0.0,75,0.00,,---,0.00,VWS V14.00,2013-05-15 06:01:00,
2013-05-15 00:06:00,72.1,64.1,30.03,South,191,0.0,0.0,76,0.00,,---,0.00,VWS V14.00,2013-05-15 06:06:00,
2013-05-15 00:11:00,72.1,64.1,30.03,SSE,147,0.0,0.0,76,0.00,,---,0.00,VWS V14.00,2013-05-15 06:11:00,
2013-05-15 00:16:00,72.1,64.1,30.03,SSW,192,0.0,0.0,76,0.00,,---,0.00,VWS V14.00,2013-05-15 06:16:00,
2013-05-15 00:21:00,71.9,64.3,30.03,SSE,159,0.0,0.0,77,0.00,,---,0.00,VWS V14.00,2013-05-15 06:21:00,
2013-05-15 00:26:00,71.7,64.1,30.03,South,173,0.0,0.0,77,0.00,,---,0.00,VWS V14.00,2013-05-15 06:26:00,
2013-05-15 00:30:00,71.4,63.8,30.03,SSE,165,0.0,0.0,77,0.00,,---,0.00,VWS V14.00,2013-05-15 06:30:00,
2013-05-15 00:31:00,71.4,63.8,30.03,SSE,161,0.0,0.0,77,0.00,,---,0.00,VWS V14.00,2013-05-15 06:31:00,
2013-05-15 00:36:00,71.1,63.9,30.02,SSE,155,0.0,0.0,78,0.00,,---,0.00,VWS V14.00,2013-05-15 06:36:00,
2013-05-15 00:41:00,70.8,63.6,30.02,SSE,164,0.0,0.0,78,0.00,,---,0.00,VWS V14.00,2013-05-15 06:41:00,
2013-05-15 00:46:00,70.6,63.4,30.02,South,173,0.0,0.0,78,0.00,,---,0.00,VWS V14.00,2013-05-15 06:46:00,
2013-05-15 00:51:00,70.4,63.6,30.02,South,171,0.0,0.0,79,0.00,,---,0.00,VWS V14.00,2013-05-15 06:51:00,
2013-05-15 00:56:00,70.2,63.4,30.02,SSE,157,0.0,0.0,79,0.00,,---,0.00,VWS V14.00,2013-05-15 06:56:00,
2013-05-15 01:00:00,70.1,63.7,30.02,SSE,158,0.0,0.0,80,0.00,,---,0.00,VWS V14.00,2013-05-15 07:00:00,
2013-05-15 01:01:00,70.1,63.7,30.02,SSE,153,0.0,0.0,80,0.00,,---,0.00,VWS V14.00,2013-05-15 07:01:00,
2013-05-15 01:06:00,69.9,63.5,30.01,SSE,167,0.0,0.0,80,0.00,,---,0.00,VWS V14.00,2013-05-15 07:06:00,
2013-05-15 01:11:00,69.9,63.8,30.02,South,175,0.0,0.0,81,0.00,,---,0.00,VWS V14.00,2013-05-15 07:11:00,
2013-05-15 01:16:00,69.9,63.8,30.01,South,171,0.0,0.0,81,0.00,,---,0.00,VWS V14.00,2013-05-15 07:16:00,
2013-05-15 01:21:00,69.8,64.1,30.01,South,173,0.0,0.0,82,0.00,,---,0.00,VWS V14.00,2013-05-15 07:21:00,
2013-05-15 01:26:00,69.8,64.1,30.01,SSE,160,0.0,0.0,82,0.00,,---,0.00,VWS V14.00,2013-05-15 07:26:00,
2013-05-15 01:30:00,69.8,64.1,30.01,SSE,163,0.0,0.0,82,0.00,,---,0.00,VWS V14.00,2013-05-15 07:30:00,
2013-05-15 01:31:00,69.8,64.1,30.01,SSW,196,0.0,0.0,82,0.00,,---,0.00,VWS V14.00,2013-05-15 07:31:00,
2013-05-15 01:36:00,69.8,64.1,30.01,SSE,164,0.0,0.0,82,0.00,,---,0.00,VWS V14.00,2013-05-15 07:36:00,
2013-05-15 01:41:00,69.8,64.1,30.01,South,188,0.0,0.0,82,0.00,,---,0.00,VWS V14.00,2013-05-15 07:41:00,
2013-05-15 01:46:00,69.8,64.4,30.00,SSE,163,0.0,0.0,83,0.00,,---,0.00,VWS V14.00,2013-05-15 07:46:00,
2013-05-15 01:51:00,69.8,64.4,30.00,SSE,165,0.0,0.0,83,0.00,,---,0.00,VWS V14.00,2013-05-15 07:51:00,
2013-05-15 01:56:00,69.9,64.5,30.00,South,180,0.0,0.0,83,0.00,,---,0.00,VWS V14.00,2013-05-15 07:56:00,
2013-05-15 02:00:00,69.9,64.5,30.00,SSE,164,0.0,0.0,83,0.00,,---,0.00,VWS V14.00,2013-05-15 08:00:00,
2013-05-15 02:01:00,69.9,64.5,30.00,South,178,0.0,0.0,83,0.00,,---,0.00,VWS V14.00,2013-05-15 08:01:00,
2013-05-15 02:06:00,69.9,64.5,30.00,South,175,0.0,0.0,83,0.00,,---,0.00,VWS V14.00,2013-05-15 08:06:00,
2013-05-15 02:11:00,69.9,64.8,30.00,SSE,162,0.0,0.0,84,0.00,,---,0.00,VWS V14.00,2013-05-15 08:11:00,
2013-05-15 02:16:00,69.8,64.8,30.00,South,178,0.0,0.0,84,0.00,,---,0.00,VWS V14.00,2013-05-15 08:16:00,
2013-05-15 02:21:00,69.7,64.7,29.99,SSE,159,0.0,0.0,84,0.00,,---,0.00,VWS V14.00,2013-05-15 08:21:00,
2013-05-15 02:25:00,69.5,64.5,29.99,SSE,159,0.0,0.0,84,0.00,,---,0.00,VWS V14.00,2013-05-15 08:25:00,
2013-05-15 02:30:00,69.5,64.8,29.99,SSE,156,0.0,0.0,85,0.00,,---,0.00,VWS V14.00,2013-05-15 08:30:00,
2013-05-15 03:00:00,69.9,65.2,29.99,North,0,0.0,0.0,85,0.00,,---,0.00,VWS V14.00,2013-05-15 09:00:00,
2013-05-15 03:30:00,70.0,65.3,29.99,North,0,0.0,0.0,85,0.00,,---,0.00,VWS V14.00,2013-05-15 09:30:00,
2013-05-15 04:00:00,69.8,65.1,29.99,North,0,0.0,0.0,85,0.00,,---,0.00,VWS V14.00,2013-05-15 10:00:00,
2013-05-15 04:30:00,69.2,64.8,29.98,North,0,0.0,0.0,86,0.00,,---,0.00,VWS V14.00,2013-05-15 10:30:00,
2013-05-15 05:00:00,69.0,64.6,29.98,North,0,0.0,0.0,86,0.00,,---,0.00,VWS V14.00,2013-05-15 11:00:00,
2013-05-15 05:30:00,68.8,64.8,29.98,North,0,0.0,0.0,87,0.00,,---,0.00,VWS V14.00,2013-05-15 11:30:00,
2013-05-15 06:00:00,68.6,64.6,29.97,North,0,0.0,0.0,87,0.00,,---,0.00,VWS V14.00,2013-05-15 12:00:00,
2013-05-15 06:02:00,68.6,64.6,29.97,North,0,0.0,0.0,87,0.00,,---,0.00,VWS V14.00,2013-05-15 12:02:00,
2013-05-15 06:07:00,68.5,64.5,29.98,SSE,157,0.0,0.0,87,0.00,,---,0.00,VWS V14.00,2013-05-15 12:07:00,
2013-05-15 06:13:00,68.6,64.6,29.98,SSE,148,0.0,0.0,87,0.00,,---,0.00,VWS V14.00,2013-05-15 12:13:00,
2013-05-15 06:18:00,68.6,64.6,29.98,SSE,157,0.0,0.0,87,0.00,,---,0.00,VWS V14.00,2013-05-15 12:18:00,
2013-05-15 06:23:00,68.6,64.6,29.99,South,179,0.0,0.0,87,0.00,,---,0.00,VWS V14.00,2013-05-15 12:23:00,
2013-05-15 06:28:00,68.6,64.6,29.99,SSE,148,0.0,0.0,87,0.00,,---,0.00,VWS V14.00,2013-05-15 12:28:00,
2013-05-15 06:30:00,68.6,64.6,29.99,SSE,147,0.0,0.0,87,0.00,,---,0.00,VWS V14.00,2013-05-15 12:30:00,
2013-05-15 06:33:00,68.6,64.6,29.99,South,175,0.0,0.0,87,0.00,,---,0.00,VWS V14.00,2013-05-15 12:33:00,
2013-05-15 06:38:00,68.7,64.7,29.98,SSE,157,0.0,0.0,87,0.00,,---,0.00,VWS V14.00,2013-05-15 12:38:00,
2013-05-15 06:43:00,68.7,64.7,29.99,South,179,0.0,0.0,87,0.00,,---,0.00,VWS V14.00,2013-05-15 12:43:00,
2013-05-15 06:48:00,68.8,64.8,29.99,South,169,0.0,0.0,87,0.00,,---,0.00,VWS V14.00,2013-05-15 12:48:00,
2013-05-15 06:53:00,68.9,64.9,30.00,South,171,0.0,0.0,87,0.00,,---,0.00,VWS V14.00,2013-05-15 12:53:00,
2013-05-15 06:58:00,68.9,64.9,30.00,South,188,0.0,0.0,87,0.00,,---,0.00,VWS V14.00,2013-05-15 12:58:00,
2013-05-15 07:00:00,68.8,64.8,30.00,SSE,157,0.0,0.0,87,0.00,,---,0.00,VWS V14.00,2013-05-15 13:00:00,
2013-05-15 07:03:00,68.7,64.7,30.00,SSW,202,0.0,0.0,87,0.00,,---,0.00,VWS V14.00,2013-05-15 13:03:00,
2013-05-15 07:09:00,68.5,64.8,30.00,South,174,0.0,0.0,88,0.00,,---,0.00,VWS V14.00,2013-05-15 13:09:00,
2013-05-15 07:14:00,68.4,64.7,30.00,South,180,0.0,0.0,88,0.00,,---,0.00,VWS V14.00,2013-05-15 13:14:00,
2013-05-15 07:19:00,68.3,64.9,30.01,SSE,165,0.0,0.0,89,0.00,,---,0.00,VWS V14.00,2013-05-15 13:19:00,
2013-05-15 07:24:00,68.3,64.9,30.01,South,175,0.0,0.0,89,0.00,,---,0.00,VWS V14.00,2013-05-15 13:24:00,
2013-05-15 07:29:00,68.4,65.0,30.01,South,175,0.0,0.0,89,0.00,,---,0.00,VWS V14.00,2013-05-15 13:29:00,
2013-05-15 07:30:00,68.5,65.1,30.01,South,190,0.0,0.0,89,0.00,,---,0.00,VWS V14.00,2013-05-15 13:30:00,
2013-05-15 07:34:00,68.6,65.2,30.00,SSE,159,0.0,0.0,89,0.00,,---,0.00,VWS V14.00,2013-05-15 13:34:00,
2013-05-15 07:39:00,68.7,65.3,30.00,South,178,0.0,0.0,89,0.00,,---,0.00,VWS V14.00,2013-05-15 13:39:00,
2013-05-15 07:44:00,68.9,65.5,30.01,SE,142,0.0,0.0,89,0.00,,---,0.00,VWS V14.00,2013-05-15 13:44:00,
2013-05-15 07:49:00,69.0,65.3,30.01,South,179,0.0,0.0,88,0.00,,---,0.00,VWS V14.00,2013-05-15 13:49:00,
2013-05-15 07:54:00,69.0,65.3,30.01,SSE,165,0.0,0.0,88,0.00,,---,0.00,VWS V14.00,2013-05-15 13:54:00,
2013-05-15 07:59:00,69.0,65.3,30.01,SSW,194,0.0,0.0,88,0.00,,---,0.00,VWS V14.00,2013-05-15 13:59:00,
2013-05-15 08:00:00,69.1,65.4,30.01,South,182,0.0,0.0,88,0.00,,---,0.00,VWS V14.00,2013-05-15 14:00:00,
2013-05-15 08:04:00,69.1,65.4,30.01,SSW,198,0.0,0.0,88,0.00,,---,0.00,VWS V14.00,2013-05-15 14:04:00,
2013-05-15 08:09:00,69.0,65.3,30.01,South,190,0.0,0.0,88,0.00,,---,0.00,VWS V14.00,2013-05-15 14:09:00,
2013-05-15 08:14:00,69.0,65.3,30.01,SSW,192,0.0,0.0,88,0.00,,---,0.00,VWS V14.00,2013-05-15 14:14:00,
2013-05-15 08:19:00,68.9,65.2,30.01,South,180,0.0,0.0,88,0.00,,---,0.00,VWS V14.00,2013-05-15 14:19:00,
2013-05-15 08:24:00,68.9,65.5,30.01,SSW,196,0.0,0.0,89,0.00,,---,0.00,VWS V14.00,2013-05-15 14:24:00,
2013-05-15 08:29:00,69.0,65.6,30.00,South,184,0.0,0.0,89,0.00,,---,0.00,VWS V14.00,2013-05-15 14:29:00,
2013-05-15 08:30:00,69.0,65.3,30.00,South,186,0.0,0.0,88,0.00,,---,0.00,VWS V14.00,2013-05-15 14:30:00,
2013-05-15 08:34:00,69.2,65.5,30.00,South,173,0.0,0.0,88,0.00,,---,0.00,VWS V14.00,2013-05-15 14:34:00,
2013-05-15 08:40:00,69.5,65.8,30.00,South,175,0.0,0.0,88,0.00,,---,0.00,VWS V14.00,2013-05-15 14:40:00,
2013-05-15 08:45:00,69.8,65.8,30.00,South,188,0.0,0.0,87,0.00,,---,0.00,VWS V14.00,2013-05-15 14:45:00,
2013-05-15 08:50:00,70.1,65.7,30.00,SSW,198,0.0,0.0,86,0.00,,---,0.00,VWS V14.00,2013-05-15 14:50:00,
2013-05-15 08:55:00,70.2,65.8,30.01,SW,218,0.0,0.0,86,0.00,,---,0.00,VWS V14.00,2013-05-15 14:55:00,
2013-05-15 09:00:00,70.4,65.7,30.01,SSW,192,0.0,0.0,85,0.00,,---,0.00,VWS V14.00,2013-05-15 15:00:00,
2013-05-15 09:05:00,70.5,65.8,30.00,SSW,196,0.0,0.0,85,0.00,,---,0.00,VWS V14.00,2013-05-15 15:05:00,
2013-05-15 09:10:00,70.6,65.9,30.01,South,176,0.0,0.0,85,0.00,,---,0.00,VWS V14.00,2013-05-15 15:10:00,
2013-05-15 09:15:00,70.7,66.0,30.00,SSW,196,0.0,0.0,85,0.00,,---,0.00,VWS V14.00,2013-05-15 15:15:00,
2013-05-15 09:21:00,70.8,66.1,30.00,South,191,0.0,0.0,85,0.00,,---,0.00,VWS V14.00,2013-05-15 15:21:00,
2013-05-15 09:26:00,71.0,66.3,30.00,South,181,0.0,0.0,85,0.00,,---,0.00,VWS V14.00,2013-05-15 15:26:00,
2013-05-15 09:30:00,71.6,66.5,30.00,South,185,0.0,0.0,84,0.00,,---,0.00,VWS V14.00,2013-05-15 15:30:00,
2013-05-15 09:31:00,71.6,66.5,30.00,South,169,0.0,0.0,84,0.00,,---,0.00,VWS V14.00,2013-05-15 15:31:00,
2013-05-15 09:36:00,71.9,66.5,30.00,South,180,0.0,0.0,83,0.00,,---,0.00,VWS V14.00,2013-05-15 15:36:00,
2013-05-15 09:41:00,71.7,65.9,30.00,SSW,194,0.0,0.0,82,0.00,,---,0.00,VWS V14.00,2013-05-15 15:41:00,
2013-05-15 09:46:00,71.7,65.6,30.00,South,176,0.0,0.0,81,0.00,,---,0.00,VWS V14.00,2013-05-15 15:46:00,
2013-05-15 09:51:00,72.7,66.5,30.00,SSE,167,0.0,0.0,81,0.00,,---,0.00,VWS V14.00,2013-05-15 15:51:00,
2013-05-15 09:56:00,73.4,66.9,30.00,South,176,0.0,0.0,80,0.00,,---,0.00,VWS V14.00,2013-05-15 15:56:00,
2013-05-15 10:00:00,73.6,65.9,30.00,South,186,0.0,0.0,77,0.00,,---,0.00,VWS V14.00,2013-05-15 16:00:00,
2013-05-15 10:01:00,73.6,65.9,30.00,South,175,0.0,0.0,77,0.00,,---,0.00,VWS V14.00,2013-05-15 16:01:00,
2013-05-15 10:06:00,73.5,66.2,30.00,South,176,0.0,0.0,78,0.00,,---,0.00,VWS V14.00,2013-05-15 16:06:00,
2013-05-15 10:11:00,74.3,66.6,30.00,SSW,198,0.0,0.0,77,0.00,,---,0.00,VWS V14.00,2013-05-15 16:11:00,
2013-05-15 10:16:00,73.9,67.0,30.00,South,177,0.0,0.0,79,0.00,,---,0.00,VWS V14.00,2013-05-15 16:16:00,
2013-05-15 10:21:00,73.1,65.8,30.00,South,169,0.0,0.0,78,0.00,,---,0.00,VWS V14.00,2013-05-15 16:21:00,
2013-05-15 10:26:00,73.7,66.8,30.00,South,175,0.0,0.0,79,0.00,,---,0.00,VWS V14.00,2013-05-15 16:26:00,
2013-05-15 10:30:00,73.6,66.7,30.00,South,174,0.0,0.0,79,0.00,,---,0.00,VWS V14.00,2013-05-15 16:30:00,
2013-05-15 10:31:00,73.6,66.7,30.00,SSW,196,0.0,0.0,79,0.00,,---,0.00,VWS V14.00,2013-05-15 16:31:00,
2013-05-15 10:36:00,74.0,67.1,30.00,South,178,0.0,0.0,79,0.00,,---,0.00,VWS V14.00,2013-05-15 16:36:00,
2013-05-15 10:42:00,74.0,67.1,30.00,South,177,0.0,0.0,79,0.00,,---,0.00,VWS V14.00,2013-05-15 16:42:00,
2013-05-15 10:47:00,74.4,67.1,29.99,SSW,196,0.0,0.0,78,0.00,,---,0.00,VWS V14.00,2013-05-15 16:47:00,
2013-05-15 10:52:00,74.5,66.8,29.99,SSW,196,0.0,0.0,77,0.00,,---,0.00,VWS V14.00,2013-05-15 16:52:00,
2013-05-15 10:57:00,74.7,67.4,29.99,SSW,208,0.0,0.0,78,0.00,,---,0.00,VWS V14.00,2013-05-15 16:57:00,
2013-05-15 11:00:00,75.5,67.8,29.98,South,177,0.0,0.0,77,0.00,,---,0.00,VWS V14.00,2013-05-15 17:00:00,
2013-05-15 11:02:00,75.6,67.5,29.98,SSE,165,0.0,0.0,76,0.00,,---,0.00,VWS V14.00,2013-05-15 17:02:00,
2013-05-15 11:07:00,75.6,67.5,29.98,South,173,0.0,0.0,76,0.00,,---,0.00,VWS V14.00,2013-05-15 17:07:00,
2013-05-15 11:12:00,76.2,66.9,29.98,South,184,0.0,0.0,73,0.00,,---,0.00,VWS V14.00,2013-05-15 17:12:00,
2013-05-15 11:17:00,76.7,66.6,29.98,South,190,0.0,0.0,71,0.00,,---,0.00,VWS V14.00,2013-05-15 17:17:00,
2013-05-15 11:22:00,76.0,66.7,29.97,South,190,0.0,0.0,73,0.00,,---,0.00,VWS V14.00,2013-05-15 17:22:00,
2013-05-15 11:27:00,76.3,66.6,29.97,SSE,159,0.0,0.0,72,0.00,,---,0.00,VWS V14.00,2013-05-15 17:27:00,
2013-05-15 11:30:00,76.8,67.1,29.97,South,173,0.0,0.0,72,0.00,,---,0.00,VWS V14.00,2013-05-15 17:30:00,
2013-05-15 11:32:00,77.0,66.9,29.97,SSW,194,0.0,0.0,71,0.00,,---,0.00,VWS V14.00,2013-05-15 17:32:00,
2013-05-15 11:37:00,77.2,66.7,29.97,South,184,0.0,0.0,70,0.00,,---,0.00,VWS V14.00,2013-05-15 17:37:00,
2013-05-15 11:42:00,76.6,66.5,29.97,South,190,0.0,0.0,71,0.00,,---,0.00,VWS V14.00,2013-05-15 17:42:00,
2013-05-15 11:47:00,76.6,66.9,29.96,SSE,157,0.0,0.0,72,0.00,,---,0.00,VWS V14.00,2013-05-15 17:47:00,
2013-05-15 11:52:00,76.6,66.5,29.96,South,186,0.0,0.0,71,0.00,,---,0.00,VWS V14.00,2013-05-15 17:52:00,
2013-05-15 11:57:00,76.0,67.1,29.97,SSE,153,0.0,0.0,74,0.00,,---,0.00,VWS V14.00,2013-05-15 17:57:00,
2013-05-15 12:00:00,75.6,67.1,29.97,South,169,0.0,0.0,75,0.00,,---,0.00,VWS V14.00,2013-05-15 18:00:00,
2013-05-15 12:02:00,75.5,67.0,29.97,South,190,0.0,0.0,75,0.00,,---,0.00,VWS V14.00,2013-05-15 18:02:00,
2013-05-15 12:07:00,75.1,67.0,29.97,South,188,0.0,0.0,76,0.00,,---,0.00,VWS V14.00,2013-05-15 18:07:00,
2013-05-15 12:12:00,75.2,67.1,29.96,South,188,0.0,0.0,76,0.00,,---,0.00,VWS V14.00,2013-05-15 18:12:00,
2013-05-15 12:17:00,75.3,67.6,29.96,South,178,0.0,0.0,77,0.00,,---,0.00,VWS V14.00,2013-05-15 18:17:00,
2013-05-15 12:22:00,74.8,66.7,29.95,South,174,0.0,0.0,76,0.00,,---,0.00,VWS V14.00,2013-05-15 18:22:00,
2013-05-15 12:27:00,74.6,66.9,29.96,South,190,0.0,0.0,77,0.00,,---,0.00,VWS V14.00,2013-05-15 18:27:00,
2013-05-15 12:30:00,74.3,67.0,29.95,South,180,0.0,0.0,78,0.00,,---,0.00,VWS V14.00,2013-05-15 18:30:00,
2013-05-15 12:32:00,74.3,67.0,29.95,South,182,0.0,0.0,78,0.00,,---,0.00,VWS V14.00,2013-05-15 18:32:00,
2013-05-15 12:37:00,73.8,66.9,29.95,SSE,165,0.0,0.0,79,0.00,,---,0.00,VWS V14.00,2013-05-15 18:37:00,
2013-05-15 12:43:00,73.7,67.2,29.95,SSE,158,0.0,0.0,80,0.00,,---,0.00,VWS V14.00,2013-05-15 18:43:00,
2013-05-15 12:48:00,73.4,66.9,29.95,SSE,152,0.0,0.0,80,0.00,,---,0.00,VWS V14.00,2013-05-15 18:48:00,
2013-05-15 12:53:00,73.0,66.8,29.94,SSE,148,0.0,0.0,81,0.00,,---,0.00,VWS V14.00,2013-05-15 18:53:00,
2013-05-15 12:58:00,72.2,66.8,29.94,SSE,154,0.0,0.0,83,0.00,,---,0.00,VWS V14.00,2013-05-15 18:58:00,
2013-05-15 13:00:00,72.0,66.9,29.94,SSE,149,0.0,0.0,84,0.00,,---,0.00,VWS V14.00,2013-05-15 19:00:00,
2013-05-15 13:03:00,71.9,67.2,29.94,SSE,164,0.0,0.0,85,0.00,,---,0.00,VWS V14.00,2013-05-15 19:03:00,
2013-05-15 13:09:00,72.0,66.9,29.94,SSE,153,0.0,0.0,84,0.00,,---,0.00,VWS V14.00,2013-05-15 19:09:00,
2013-05-15 13:14:00,72.4,67.3,29.93,SSE,161,0.0,0.0,84,0.00,,---,0.00,VWS V14.00,2013-05-15 19:14:00,
2013-05-15 13:19:00,72.5,67.1,29.93,South,174,0.0,0.0,83,0.00,,---,0.00,VWS V14.00,2013-05-15 19:19:00,
2013-05-15 13:24:00,72.5,67.1,29.93,SSE,157,0.0,0.0,83,0.00,,---,0.00,VWS V14.00,2013-05-15 19:24:00,
2013-05-15 13:29:00,72.4,66.9,29.92,SSE,153,0.0,0.0,83,0.00,,---,0.00,VWS V14.00,2013-05-15 19:29:00,
2013-05-15 13:30:00,72.3,66.8,29.92,SSE,148,0.0,0.0,83,0.00,,---,0.00,VWS V14.00,2013-05-15 19:30:00,
2013-05-15 13:34:00,72.2,67.1,29.92,SSE,148,0.0,0.0,84,0.00,,---,0.00,VWS V14.00,2013-05-15 19:34:00,
2013-05-15 13:39:00,72.1,67.0,29.92,SSE,148,0.0,0.0,84,0.00,,---,0.00,VWS V14.00,2013-05-15 19:39:00,
2013-05-15 13:44:00,71.7,66.9,29.92,SE,133,0.0,0.0,85,0.00,,---,0.00,VWS V14.00,2013-05-15 19:44:00,
2013-05-15 13:49:00,70.9,66.8,29.92,SSE,155,0.0,0.0,87,0.00,,---,0.00,VWS V14.00,2013-05-15 19:49:00,
2013-05-15 13:54:00,70.4,66.7,29.92,SSE,152,0.0,0.0,88,0.00,,---,0.00,VWS V14.00,2013-05-15 19:54:00,
2013-05-15 13:59:00,70.1,66.7,29.92,SSE,148,0.0,0.0,89,0.00,,---,0.00,VWS V14.00,2013-05-15 19:59:00,
2013-05-15 14:00:00,70.0,66.9,29.92,SE,144,0.0,0.0,90,0.00,,---,0.00,VWS V14.00,2013-05-15 20:00:00,
2013-05-15 14:05:00,69.9,66.8,29.92,SSE,148,0.0,0.0,90,0.00,,---,0.00,VWS V14.00,2013-05-15 20:05:00,
2013-05-15 14:10:00,69.8,67.1,29.91,SE,140,0.0,0.0,91,0.00,,---,0.00,VWS V14.00,2013-05-15 20:10:00,
2013-05-15 14:15:00,69.6,66.9,29.91,SE,142,0.0,0.0,91,0.00,,---,0.00,VWS V14.00,2013-05-15 20:15:00,
2013-05-15 14:20:00,69.3,66.6,29.91,SE,138,0.0,0.0,91,0.00,,---,0.00,VWS V14.00,2013-05-15 20:20:00,
2013-05-15 14:25:00,69.3,66.9,29.90,SE,138,0.0,0.0,92,0.00,,---,0.00,VWS V14.00,2013-05-15 20:25:00,
2013-05-15 14:30:00,69.2,66.8,29.90,SSE,150,0.0,0.0,92,0.00,,---,0.00,VWS V14.00,2013-05-15 20:30:00,
2013-05-15 14:35:00,69.2,66.8,29.89,SSE,147,0.0,0.0,92,0.00,,---,0.00,VWS V14.00,2013-05-15 20:35:00,
2013-05-15 14:40:00,69.3,66.9,29.89,SE,141,0.0,0.0,92,0.00,,---,0.00,VWS V14.00,2013-05-15 20:40:00,
2013-05-15 14:45:00,69.2,66.8,29.89,SSE,160,0.0,0.0,92,0.00,,---,0.00,VWS V14.00,2013-05-15 20:45:00,
2013-05-15 14:50:00,69.2,66.8,29.89,SE,132,0.0,0.0,92,0.00,,---,0.00,VWS V14.00,2013-05-15 20:50:00,
2013-05-15 14:55:00,69.0,66.3,29.89,SE,135,0.0,0.0,91,0.00,,---,0.00,VWS V14.00,2013-05-15 20:55:00,
2013-05-15 15:00:00,68.7,66.3,29.89,SE,136,0.0,0.0,92,0.00,,---,0.00,VWS V14.00,2013-05-15 21:00:00,
2013-05-15 15:05:00,68.6,66.2,29.88,SSE,156,0.0,0.0,92,0.00,,---,0.00,VWS V14.00,2013-05-15 21:05:00,
2013-05-15 15:10:00,68.5,66.1,29.89,SE,128,0.0,0.0,92,0.00,,---,0.00,VWS V14.00,2013-05-15 21:10:00,
2013-05-15 15:15:00,68.2,66.1,29.89,SE,145,0.0,0.0,93,0.00,,---,0.00,VWS V14.00,2013-05-15 21:15:00,
2013-05-15 15:20:00,68.1,66.0,29.89,SSE,157,0.0,0.0,93,0.00,,---,0.00,VWS V14.00,2013-05-15 21:20:00,
2013-05-15 15:26:00,68.0,65.9,29.89,SSE,147,0.0,0.0,93,0.00,,---,0.00,VWS V14.00,2013-05-15 21:26:00,
2013-05-15 15:30:00,67.9,65.8,29.88,SSE,160,0.0,0.0,93,0.00,,---,0.01,VWS V14.00,2013-05-15 21:30:00,
2013-05-15 15:31:00,67.9,65.8,29.88,SSE,158,0.0,0.0,93,0.00,,---,0.01,VWS V14.00,2013-05-15 21:31:00,
2013-05-15 15:36:00,67.9,65.8,29.88,SSE,149,0.0,0.0,93,0.00,,---,0.01,VWS V14.00,2013-05-15 21:36:00,
2013-05-15 15:41:00,67.9,65.8,29.88,SE,127,0.0,0.0,93,0.00,,---,0.01,VWS V14.00,2013-05-15 21:41:00,
2013-05-15 15:46:00,67.9,65.8,29.87,SE,141,0.0,0.0,93,0.00,,---,0.01,VWS V14.00,2013-05-15 21:46:00,
2013-05-15 15:51:00,67.8,65.7,29.87,SSE,153,0.0,0.0,93,0.00,,---,0.02,VWS V14.00,2013-05-15 21:51:00,
2013-05-15 15:56:00,67.9,66.1,29.87,SE,145,0.0,0.0,94,0.00,,---,0.02,VWS V14.00,2013-05-15 21:56:00,
2013-05-15 16:00:00,67.9,66.1,29.86,SSE,163,0.0,0.0,94,0.00,,---,0.02,VWS V14.00,2013-05-15 22:00:00,
2013-05-15 16:01:00,67.9,66.1,29.86,SSE,163,0.0,0.0,94,0.00,,---,0.02,VWS V14.00,2013-05-15 22:01:00,
2013-05-15 16:06:00,67.9,66.1,29.87,SSE,150,0.0,0.0,94,0.00,,---,0.02,VWS V14.00,2013-05-15 22:06:00,
2013-05-15 16:11:00,67.9,66.1,29.87,SE,141,0.0,0.0,94,0.00,,---,0.02,VWS V14.00,2013-05-15 22:11:00,
2013-05-15 16:17:00,67.9,66.1,29.87,SE,138,0.0,0.0,94,0.00,,---,0.02,VWS V14.00,2013-05-15 22:17:00,
2013-05-15 16:22:00,67.8,66.0,29.87,SE,141,0.0,0.0,94,0.00,,---,0.02,VWS V14.00,2013-05-15 22:22:00,
2013-05-15 16:27:00,67.9,66.1,29.86,SE,137,0.0,0.0,94,0.00,,---,0.02,VWS V14.00,2013-05-15 22:27:00,
2013-05-15 16:30:00,67.8,66.0,29.86,SE,139,0.0,0.0,94,0.00,,---,0.03,VWS V14.00,2013-05-15 22:30:00,
2013-05-15 16:32:00,67.8,66.0,29.86,SE,136,0.0,0.0,94,0.00,,---,0.03,VWS V14.00,2013-05-15 22:32:00,
2013-05-15 16:37:00,67.8,66.0,29.85,SE,134,0.0,0.0,94,0.00,,---,0.03,VWS V14.00,2013-05-15 22:37:00,
2013-05-15 16:42:00,67.9,66.1,29.85,SE,142,0.0,0.0,94,0.00,,---,0.03,VWS V14.00,2013-05-15 22:42:00,
2013-05-15 16:47:00,67.8,66.0,29.85,SSE,148,0.0,0.0,94,0.00,,---,0.03,VWS V14.00,2013-05-15 22:47:00,
2013-05-15 16:52:00,67.9,66.1,29.84,SSE,153,0.0,0.0,94,0.00,,---,0.03,VWS V14.00,2013-05-15 22:52:00,
2013-05-15 16:57:00,67.9,66.1,29.83,SE,142,0.0,0.0,94,0.00,,---,0.03,VWS V14.00,2013-05-15 22:57:00,
2013-05-15 17:00:00,67.9,66.1,29.83,SSE,151,0.0,0.0,94,0.00,,---,0.03,VWS V14.00,2013-05-15 23:00:00,
2013-05-15 17:02:00,67.9,66.1,29.82,SE,128,0.0,0.0,94,0.00,,---,0.03,VWS V14.00,2013-05-15 23:02:00,
2013-05-15 17:08:00,68.0,66.5,29.82,SSE,147,0.0,0.0,95,0.00,,---,0.03,VWS V14.00,2013-05-15 23:08:00,
2013-05-15 17:13:00,68.1,66.3,29.82,SE,132,0.0,0.0,94,0.00,,---,0.03,VWS V14.00,2013-05-15 23:13:00,
2013-05-15 17:18:00,68.1,66.3,29.82,SE,139,0.0,0.0,94,0.00,,---,0.03,VWS V14.00,2013-05-15 23:18:00,
2013-05-15 17:23:00,68.2,66.4,29.82,SE,131,0.0,0.0,94,0.00,,---,0.03,VWS V14.00,2013-05-15 23:23:00,
2013-05-15 17:28:00,68.3,66.5,29.81,SE,134,0.0,0.0,94,0.00,,---,0.03,VWS V14.00,2013-05-15 23:28:00,
2013-05-15 17:30:00,68.4,66.6,29.82,SE,130,0.0,0.0,94,0.00,,---,0.03,VWS V14.00,2013-05-15 23:30:00,
2013-05-15 17:33:00,68.5,66.7,29.82,SE,140,0.0,0.0,94,0.00,,---,0.03,VWS V14.00,2013-05-15 23:33:00,
2013-05-15 17:38:00,68.6,66.5,29.82,SE,146,0.0,0.0,93,0.00,,---,0.03,VWS V14.00,2013-05-15 23:38:00,
2013-05-15 17:43:00,68.7,66.9,29.82,SE,143,0.0,0.0,94,0.00,,---,0.03,VWS V14.00,2013-05-15 23:43:00,
2013-05-15 17:48:00,68.8,66.7,29.81,SE,140,0.0,0.0,93,0.00,,---,0.03,VWS V14.00,2013-05-15 23:48:00,
2013-05-15 17:53:00,68.8,66.7,29.81,SE,131,0.0,0.0,93,0.00,,---,0.03,VWS V14.00,2013-05-15 23:53:00,
2013-05-15 17:58:00,68.9,66.8,29.81,ESE,120,0.0,0.0,93,0.00,,---,0.03,VWS V14.00,2013-05-15 23:58:00,
2013-05-15 18:00:00,68.9,66.8,29.81,SE,136,0.0,0.0,93,0.00,,---,0.03,VWS V14.00,2013-05-16 00:00:00,
2013-05-15 18:03:00,68.9,66.8,29.81,ESE,123,0.0,0.0,93,0.00,,---,0.03,VWS V14.00,2013-05-16 00:03:00,
2013-05-15 18:08:00,68.9,66.8,29.81,SSE,149,0.0,0.0,93,0.00,,---,0.03,VWS V14.00,2013-05-16 00:08:00,
2013-05-15 18:13:00,69.0,66.9,29.81,SE,134,0.0,0.0,93,0.00,,---,0.03,VWS V14.00,2013-05-16 00:13:00,
2013-05-15 18:18:00,69.0,66.6,29.81,SE,124,0.0,0.0,92,0.00,,---,0.03,VWS V14.00,2013-05-16 00:18:00,
2013-05-15 18:24:00,69.0,66.6,29.81,SE,126,0.0,0.0,92,0.00,,---,0.03,VWS V14.00,2013-05-16 00:24:00,
2013-05-15 18:29:00,69.1,66.7,29.81,SE,142,0.0,0.0,92,0.00,,---,0.03,VWS V14.00,2013-05-16 00:29:00,
2013-05-15 18:30:00,69.1,66.7,29.81,SSE,150,0.0,0.0,92,0.00,,---,0.03,VWS V14.00,2013-05-16 00:30:00,
2013-05-15 18:34:00,69.1,66.7,29.82,ESE,116,0.0,0.0,92,0.00,,---,0.03,VWS V14.00,2013-05-16 00:34:00,
2013-05-15 18:39:00,69.2,66.8,29.82,SE,141,0.0,0.0,92,0.00,,---,0.03,VWS V14.00,2013-05-16 00:39:00,
2013-05-15 18:44:00,69.2,66.8,29.82,SSE,148,0.0,0.0,92,0.00,,---,0.03,VWS V14.00,2013-05-16 00:44:00,
2013-05-15 18:49:00,69.3,66.9,29.82,SSE,157,0.0,0.0,92,0.00,,---,0.03,VWS V14.00,2013-05-16 00:49:00,
2013-05-15 18:54:00,69.3,66.9,29.82,SE,136,0.0,0.0,92,0.00,,---,0.03,VWS V14.00,2013-05-16 00:54:00,
2013-05-15 19:00:00,69.2,66.8,29.82,SE,135,0.0,0.0,92,0.00,,---,0.03,VWS V14.00,2013-05-16 01:00:00,
2013-05-15 19:05:00,69.2,66.8,29.81,SE,133,0.0,0.0,92,0.00,,---,0.03,VWS V14.00,2013-05-16 01:05:00,
2013-05-15 19:10:00,69.1,66.7,29.80,ESE,121,0.0,0.0,92,0.00,,---,0.03,VWS V14.00,2013-05-16 01:10:00,
2013-05-15 19:15:00,69.1,66.7,29.80,SE,128,0.0,0.0,92,0.00,,---,0.03,VWS V14.00,2013-05-16 01:15:00,
2013-05-15 19:20:00,69.2,66.8,29.80,SE,140,0.0,0.0,92,0.00,,---,0.03,VWS V14.00,2013-05-16 01:20:00,
2013-05-15 19:25:00,69.1,66.7,29.81,SSE,163,0.0,0.0,92,0.00,,---,0.03,VWS V14.00,2013-05-16 01:25:00,
2013-05-15 19:30:00,69.0,66.6,29.79,SE,135,0.0,0.0,92,1.04,,---,0.11,VWS V14.00,2013-05-16 01:30:00,
2013-05-15 19:35:00,68.8,66.4,29.79,SE,132,0.0,0.0,92,0.29,,---,0.14,VWS V14.00,2013-05-16 01:35:00,
2013-05-15 19:40:00,68.8,66.7,29.79,SE,141,0.0,0.0,93,0.11,,---,0.15,VWS V14.00,2013-05-16 01:40:00,
2013-05-15 19:46:00,68.7,66.6,29.78,SE,140,0.0,0.0,93,0.13,,---,0.16,VWS V14.00,2013-05-16 01:46:00,
2013-05-15 19:51:00,68.7,66.6,29.79,SSE,148,0.0,0.0,93,0.11,,---,0.17,VWS V14.00,2013-05-16 01:51:00,
2013-05-15 19:56:00,68.7,66.6,29.79,SE,135,0.0,0.0,93,0.12,,---,0.18,VWS V14.00,2013-05-16 01:56:00,
2013-05-15 20:00:00,68.8,66.7,29.81,SE,144,0.0,0.0,93,0.06,,---,0.18,VWS V14.00,2013-05-16 02:00:00,
2013-05-15 20:01:00,68.8,66.7,29.81,SSE,165,0.0,0.0,93,0.06,,---,0.18,VWS V14.00,2013-05-16 02:01:00,
2013-05-15 20:06:00,68.9,66.8,29.82,SE,145,0.0,0.0,93,0.04,,---,0.18,VWS V14.00,2013-05-16 02:06:00,
2013-05-15 20:12:00,69.0,66.9,29.83,South,191,0.0,0.0,93,0.00,,---,0.18,VWS V14.00,2013-05-16 02:12:00,
2013-05-15 20:17:00,69.0,66.9,29.83,South,173,0.0,0.0,93,0.00,,---,0.18,VWS V14.00,2013-05-16 02:17:00,
2013-05-15 20:22:00,69.1,67.0,29.83,South,169,0.0,0.0,93,0.00,,---,0.19,VWS V14.00,2013-05-16 02:22:00,
2013-05-15 20:27:00,69.1,67.0,29.83,South,181,0.0,0.0,93,0.24,,---,0.20,VWS V14.00,2013-05-16 02:27:00,
2013-05-15 20:30:00,68.9,66.8,29.83,South,177,0.0,0.0,93,0.14,,---,0.21,VWS V14.00,2013-05-16 02:30:00,
2013-05-15 20:32:00,68.9,66.8,29.83,SSE,154,0.0,0.0,93,0.14,,---,0.21,VWS V14.00,2013-05-16 02:32:00,
2013-05-15 20:37:00,68.9,66.8,29.83,SSE,154,0.0,0.0,93,0.11,,---,0.22,VWS V14.00,2013-05-16 02:37:00,
2013-05-15 20:42:00,69.1,67.0,29.83,SSE,165,0.0,0.0,93,0.08,,---,0.22,VWS V14.00,2013-05-16 02:42:00,
2013-05-15 20:47:00,69.2,67.1,29.82,SE,140,0.0,0.0,93,0.05,,---,0.23,VWS V14.00,2013-05-16 02:47:00,
2013-05-15 21:00:00,69.0,66.9,29.79,North,0,0.0,0.0,93,0.14,,---,0.21,VWS V14.00,2013-05-16 03:00:00,
2013-05-15 21:30:00,68.6,66.5,29.83,North,0,0.0,0.0,93,0.10,,---,0.23,VWS V14.00,2013-05-16 03:30:00,
2013-05-15 22:00:00,68.8,67.0,29.82,North,0,0.0,0.0,94,0.33,,---,0.33,VWS V14.00,2013-05-16 04:00:00,
2013-05-15 22:30:00,63.1,60.4,29.89,North,0,0.0,0.0,91,0.22,,---,0.42,VWS V14.00,2013-05-16 04:30:00,
2013-05-15 23:00:00,61.9,60.2,29.85,North,0,0.0,0.0,94,0.24,,---,0.08,VWS V14.00,2013-05-16 05:00:00,
2013-05-15 23:30:00,62.1,60.7,29.85,North,0,0.0,0.0,95,0.16,,---,0.15,VWS V14.00,2013-05-16 05:30:00,